Time;durP1;ratioP1;P1;durP2;ratioP2;P2;SDS_P1;SDS_P2;PMS_P1;PMS_P2;Temp;Humidity;BMP_temperature;BMP_pressure;BME280_temperature;BME280_humidity;BME280_pressure;Samples;Min_cycle;Max_cycle;Signal;HPM_P1;HPM_P2
2022/01/12 00:00:00;;;;;;;7.13;3.42;;;1.60;83.80;;;;;;6232438;28;20131;-80
2022/01/12 00:03:02;;;;;;;6.85;3.55;;;1.60;84.50;;;;;;6237952;28;20042;-80
2022/01/12 00:06:06;;;;;;;7.95;3.60;;;1.50;83.90;;;;;;6230487;28;20057;-80
2022/01/12 00:09:08;;;;;;;8.75;3.88;;;1.50;84.30;;;;;;6228514;28;20034;-80
2022/01/12 00:12:10;;;;;;;8.63;3.30;;;1.40;84.40;;;;;;6239049;28;20187;-80
2022/01/12 00:15:14;;;;;;;9.73;4.00;;;1.40;84.70;;;;;;6255737;28;20168;-80
2022/01/12 00:18:15;;;;;;;8.25;3.55;;;1.40;84.90;;;;;;6254059;28;20053;-80
2022/01/12 00:21:19;;;;;;;8.85;3.83;;;1.50;85.00;;;;;;6253222;28;20073;-79
2022/01/12 00:24:20;;;;;;;5.55;3.28;;;1.50;84.80;;;;;;6255435;28;20041;-80
2022/01/12 00:34:02;;;;;;;9.52;3.80;;;1.40;85.30;;;;;;6231567;28;20478;-79
2022/01/12 00:37:05;;;;;;;7.05;2.90;;;1.40;85.50;;;;;;6228548;28;20099;-79
2022/01/12 00:40:08;;;;;;;7.68;3.40;;;1.30;86.10;;;;;;6228911;28;20054;-79
2022/01/12 00:43:10;;;;;;;6.97;3.60;;;1.20;86.20;;;;;;6230237;28;20110;-80
2022/01/12 00:46:13;;;;;;;15.23;3.40;;;1.20;86.40;;;;;;6228171;28;20061;-79
2022/01/12 00:49:15;;;;;;;5.97;3.53;;;1.20;86.90;;;;;;6229073;28;20207;-79
2022/01/12 00:52:18;;;;;;;7.30;3.17;;;1.10;86.40;;;;;;6229269;28;20683;-79
2022/01/12 00:55:20;;;;;;;9.90;4.53;;;1.10;87.40;;;;;;6228996;28;20054;-79
2022/01/12 00:58:22;;;;;;;9.15;5.05;;;1.00;87.40;;;;;;6227657;28;20042;-80
2022/01/12 01:01:25;;;;;;;8.88;4.82;;;1.00;88.20;;;;;;6228850;28;20054;-78
2022/01/12 01:04:26;;;;;;;8.80;4.47;;;0.90;87.70;;;;;;6227964;28;20056;-80
2022/01/12 01:07:30;;;;;;;9.07;4.18;;;0.80;88.10;;;;;;6228692;28;20132;-80
2022/01/12 01:10:45;;;;;;;10.68;4.65;;;0.80;88.60;;;;;;6217278;28;20065;-79
2022/01/12 01:13:57;;;;;;;10.43;3.88;;;0.80;88.60;;;;;;6243210;28;20050;-79
2022/01/12 01:25:22;;;;;;;7.70;3.33;;;0.70;88.90;;;;;;6232145;28;20499;-80
2022/01/12 01:27:07;;;;;;;11.93;4.70;;;0.70;89.70;;;;;;6228646;28;20567;-81
2022/01/12 01:30:09;;;;;;;8.35;4.38;;;0.60;89.70;;;;;;6228853;28;20053;-80
2022/01/12 01:33:15;;;;;;;6.45;3.50;;;0.60;89.10;;;;;;6229179;28;20034;-80
2022/01/12 01:36:18;;;;;;;8.38;4.43;;;0.50;88.80;;;;;;6230299;28;20077;-80
2022/01/12 01:39:24;;;;;;;11.35;4.72;;;0.50;89.60;;;;;;6229499;28;20057;-79
2022/01/12 01:42:39;;;;;;;8.48;4.28;;;0.50;89.50;;;;;;6228690;28;20053;-79
2022/01/12 01:55:41;;;;;;;7.28;3.78;;;0.40;90.10;;;;;;6227608;28;20050;-79
2022/01/12 01:58:43;;;;;;;10.90;4.35;;;0.30;89.60;;;;;;6226124;28;20049;-79
2022/01/12 02:01:44;;;;;;;10.27;5.40;;;0.30;89.40;;;;;;6227353;28;20050;-79
2022/01/12 02:04:47;;;;;;;7.72;4.70;;;0.20;89.80;;;;;;6227724;28;20061;-79
2022/01/12 02:07:49;;;;;;;10.38;4.32;;;0.30;90.10;;;;;;6227634;28;20054;-80
2022/01/12 02:10:55;;;;;;;12.52;4.97;;;0.20;90.10;;;;;;6225560;28;20459;-79
2022/01/12 02:13:57;;;;;;;11.15;4.43;;;0.20;90.40;;;;;;6226578;28;20045;-79
2022/01/12 02:17:04;;;;;;;13.45;5.22;;;0.20;90.30;;;;;;6226737;28;20474;-79
2022/01/12 02:20:27;;;;;;;9.85;5.05;;;0.20;90.50;;;;;;6226608;28;20060;-79
2022/01/12 02:36:58;;;;;;;14.50;6.55;;;0.10;90.20;;;;;;6227245;28;20042;-80
2022/01/12 02:40:01;;;;;;;7.40;3.75;;;0.10;90.30;;;;;;6226443;28;20507;-79
2022/01/12 02:43:10;;;;;;;8.25;4.25;;;0.10;90.10;;;;;;6226120;28;20127;-79
2022/01/12 02:56:19;;;;;;;11.88;5.72;;;-0.10;90.50;;;;;;6226727;28;20125;-79
2022/01/12 02:59:21;;;;;;;12.85;5.85;;;0.00;90.80;;;;;;6227157;28;20136;-79
2022/01/12 03:02:25;;;;;;;10.40;5.28;;;0.00;90.70;;;;;;6226126;28;20050;-79
2022/01/12 03:05:35;;;;;;;9.82;5.90;;;0.00;90.80;;;;;;6226082;28;20046;-81
2022/01/12 03:08:37;;;;;;;10.88;5.55;;;0.00;90.70;;;;;;6227294;28;20049;-79
2022/01/12 03:11:40;;;;;;;12.30;4.68;;;-0.10;90.50;;;;;;6226132;28;20100;-79
2022/01/12 03:14:42;;;;;;;20.33;4.72;;;-0.10;90.80;;;;;;6226108;28;20049;-79
2022/01/12 03:17:45;;;;;;;10.98;5.50;;;-0.10;90.70;;;;;;6226592;28;20512;-79
2022/01/12 03:20:46;;;;;;;11.52;5.35;;;-0.10;90.50;;;;;;6229680;28;20061;-79
2022/01/12 03:23:49;;;;;;;12.80;5.30;;;-0.20;90.50;;;;;;6231331;28;20192;-79
2022/01/12 03:26:52;;;;;;;12.32;5.22;;;-0.20;90.60;;;;;;6232556;28;20045;-79
2022/01/12 03:29:56;;;;;;;10.38;5.03;;;-0.20;91.00;;;;;;6230957;28;20046;-78
2022/01/12 03:33:08;;;;;;;15.77;5.80;;;-0.20;90.90;;;;;;6230626;28;20042;-79
2022/01/12 03:36:24;;;;;;;9.35;5.30;;;-0.20;91.00;;;;;;6230587;28;20050;-79
2022/01/12 03:39:26;;;;;;;14.68;6.00;;;-0.20;90.80;;;;;;6230993;28;20109;-78
2022/01/12 03:42:29;;;;;;;13.38;5.10;;;-0.20;91.00;;;;;;6230009;28;20072;-79
2022/01/12 03:45:31;;;;;;;12.13;5.70;;;-0.30;90.90;;;;;;6228513;28;20460;-79
2022/01/12 03:48:33;;;;;;;11.20;5.47;;;-0.30;90.90;;;;;;6229796;28;20053;-79
2022/01/12 03:51:35;;;;;;;14.60;6.13;;;-0.30;90.90;;;;;;6231016;28;20132;-79
2022/01/12 03:54:36;;;;;;;11.95;5.57;;;-0.30;91.00;;;;;;6229774;28;20504;-79
2022/01/12 03:57:39;;;;;;;11.48;5.05;;;-0.30;90.90;;;;;;6229279;28;20512;-79
2022/01/12 04:00:41;;;;;;;13.43;6.10;;;-0.30;91.00;;;;;;6229981;28;20169;-78
2022/01/12 04:03:47;;;;;;;18.13;5.97;;;-0.30;91.00;;;;;;6230067;28;20050;-79
2022/01/12 04:10:08;;;;;;;16.35;6.72;;;-0.30;90.80;;;;;;6231975;28;20042;-79
2022/01/12 04:13:13;;;;;;;14.63;5.85;;;-0.40;90.90;;;;;;6230047;28;20156;-79
2022/01/12 04:16:15;;;;;;;12.27;5.20;;;-0.40;90.80;;;;;;6229318;28;20429;-79
2022/01/12 04:19:17;;;;;;;18.33;6.88;;;-0.40;90.60;;;;;;6228403;28;20144;-79
2022/01/12 04:25:34;;;;;;;15.35;7.15;;;-0.50;90.70;;;;;;6226627;28;20038;-78
2022/01/12 04:28:39;;;;;;;13.07;5.43;;;-0.50;90.90;;;;;;6229006;28;20627;-78
2022/01/12 04:31:41;;;;;;;12.18;5.30;;;-0.50;91.00;;;;;;6230316;28;20080;-77
2022/01/12 04:34:43;;;;;;;11.63;6.30;;;-0.60;91.10;;;;;;6230012;28;20115;-78
2022/01/12 04:37:45;;;;;;;11.63;5.97;;;-0.60;91.20;;;;;;6230945;28;20143;-78
2022/01/12 04:40:48;;;;;;;14.93;6.32;;;-0.50;91.10;;;;;;6230258;28;20050;-78
2022/01/12 04:43:52;;;;;;;18.73;7.80;;;-0.50;91.20;;;;;;6233450;28;20124;-78
2022/01/12 04:47:05;;;;;;;48.10;15.82;;;-0.50;91.50;;;;;;6230968;28;20495;-79
2022/01/12 04:50:07;;;;;;;48.10;17.15;;;-0.40;92.30;;;;;;6228319;28;20049;-79
2022/01/12 04:53:09;;;;;;;29.00;11.25;;;-0.20;92.10;;;;;;6227982;28;20172;-79
2022/01/12 04:56:11;;;;;;;20.50;9.02;;;-0.20;92.00;;;;;;6227703;28;20053;-78
2022/01/12 04:59:15;;;;;;;18.48;8.38;;;-0.10;92.00;;;;;;6229379;28;20054;-78
2022/01/12 05:09:07;;;;;;;17.52;7.95;;;0.10;91.80;;;;;;6227958;28;20488;-79
2022/01/12 05:15:29;;;;;;;19.40;8.90;;;0.10;91.60;;;;;;6200684;28;20050;-79
2022/01/12 05:18:33;;;;;;;19.25;8.23;;;0.10;91.60;;;;;;6207512;28;20105;-78
2022/01/12 05:21:35;;;;;;;16.83;8.93;;;0.10;91.70;;;;;;6204686;28;20127;-78
2022/01/12 05:24:37;;;;;;;23.25;9.68;;;0.10;91.80;;;;;;6202006;28;20125;-79
2022/01/12 05:27:38;;;;;;;21.80;9.00;;;0.10;91.90;;;;;;6202665;28;20054;-79
2022/01/12 05:30:42;;;;;;;22.02;7.32;;;0.10;91.70;;;;;;6201422;28;20464;-79
2022/01/12 05:33:47;;;;;;;20.40;8.50;;;0.10;91.50;;;;;;6201359;28;20052;-79
2022/01/12 05:36:49;;;;;;;19.67;7.63;;;0.10;91.60;;;;;;6201662;28;20424;-79
2022/01/12 05:39:51;;;;;;;16.63;6.75;;;0.20;91.80;;;;;;6202033;28;20185;-78
2022/01/12 05:42:54;;;;;;;18.77;9.68;;;0.30;91.90;;;;;;6201632;28;20186;-79
2022/01/12 05:46:01;;;;;;;19.08;8.30;;;0.30;91.80;;;;;;6200333;28;20069;-79
2022/01/12 05:52:22;;;;;;;16.73;7.72;;;0.30;91.60;;;;;;6201793;28;20050;-79
2022/01/12 05:55:24;;;;;;;23.73;9.30;;;0.30;91.50;;;;;;6202336;28;20049;-79
2022/01/12 05:58:27;;;;;;;18.92;9.45;;;0.30;91.60;;;;;;6201606;28;20508;-78
2022/01/12 06:01:30;;;;;;;15.20;9.25;;;0.30;91.70;;;;;;6200598;28;20057;-79
2022/01/12 06:04:32;;;;;;;23.13;10.07;;;0.30;91.50;;;;;;6201147;28;20053;-79
2022/01/12 06:07:34;;;;;;;21.77;8.63;;;0.30;91.70;;;;;;6202298;28;20125;-79
2022/01/12 06:10:36;;;;;;;28.20;11.10;;;0.30;91.70;;;;;;6200482;28;20053;-79
2022/01/12 06:13:38;;;;;;;24.25;10.73;;;0.30;91.60;;;;;;6209019;28;20208;-79
2022/01/12 06:16:41;;;;;;;19.63;9.20;;;0.30;91.60;;;;;;6218177;28;20050;-78
2022/01/12 06:19:42;;;;;;;22.90;9.50;;;0.30;91.60;;;;;;6227302;28;20096;-79
2022/01/12 06:22:44;;;;;;;17.27;9.15;;;0.30;91.60;;;;;;6226651;28;20439;-79
2022/01/12 06:25:46;;;;;;;21.20;9.70;;;0.30;91.70;;;;;;6225983;28;20340;-79
2022/01/12 06:29:04;;;;;;;17.80;10.45;;;0.30;91.70;;;;;;6227172;28;20046;-79
2022/01/12 06:32:08;;;;;;;22.45;10.30;;;0.30;91.50;;;;;;6227332;28;20049;-78
2022/01/12 06:35:10;;;;;;;16.58;8.40;;;0.30;91.50;;;;;;6227782;28;20128;-79
2022/01/12 06:38:11;;;;;;;17.13;8.80;;;0.30;91.50;;;;;;6227130;28;20538;-78
2022/01/12 06:41:14;;;;;;;18.92;8.95;;;0.40;91.40;;;;;;6226232;28;20049;-79
2022/01/12 06:44:20;;;;;;;20.42;9.43;;;0.40;91.30;;;;;;6224797;28;20502;-79
2022/01/12 06:47:23;;;;;;;16.92;8.95;;;0.40;91.20;;;;;;6226365;28;20045;-78
2022/01/12 06:50:25;;;;;;;19.02;8.60;;;0.40;91.10;;;;;;6225937;28;20172;-79
2022/01/12 06:53:27;;;;;;;16.38;8.15;;;0.50;90.90;;;;;;6225282;28;20510;-79
2022/01/12 06:56:29;;;;;;;21.42;8.85;;;0.50;91.00;;;;;;6229479;28;20200;-80
2022/01/12 06:59:31;;;;;;;19.83;9.13;;;0.30;90.80;;;;;;6230818;28;20049;-79
2022/01/12 07:02:34;;;;;;;17.35;9.10;;;0.30;91.10;;;;;;6230783;28;20045;-78
2022/01/12 07:05:36;;;;;;;18.42;9.75;;;0.30;91.00;;;;;;6232603;28;20046;-79
2022/01/12 07:08:38;;;;;;;16.25;8.45;;;0.30;90.90;;;;;;6229254;28;20415;-79
2022/01/12 07:11:41;;;;;;;15.00;7.82;;;0.30;90.90;;;;;;6230072;28;20101;-79
2022/01/12 07:14:43;;;;;;;18.23;8.25;;;0.30;91.10;;;;;;6218846;28;20048;-78
2022/01/12 07:17:47;;;;;;;13.50;8.00;;;0.40;90.90;;;;;;6229919;28;20104;-79
2022/01/12 07:20:49;;;;;;;25.27;12.20;;;0.40;90.80;;;;;;6237145;28;20064;-78
2022/01/12 07:23:54;;;;;;;25.95;11.13;;;0.30;90.90;;;;;;6236988;28;20102;-78
2022/01/12 07:26:56;;;;;;;20.00;9.68;;;0.30;90.90;;;;;;6234203;28;20050;-78
2022/01/12 07:30:00;;;;;;;16.92;6.93;;;0.30;90.90;;;;;;6235072;28;20076;-78
2022/01/12 07:33:03;;;;;;;16.75;8.98;;;0.40;91.00;;;;;;6236064;28;20050;-78
2022/01/12 07:36:06;;;;;;;15.13;8.48;;;0.40;90.90;;;;;;6236853;28;20655;-78
2022/01/12 07:39:08;;;;;;;18.48;8.63;;;0.40;91.00;;;;;;6236876;28;20132;-78
2022/01/12 07:42:11;;;;;;;14.07;7.82;;;0.50;91.00;;;;;;6236737;28;20100;-78
2022/01/12 07:45:14;;;;;;;17.70;8.10;;;0.60;90.80;;;;;;6233803;28;20037;-78
2022/01/12 07:48:17;;;;;;;14.65;8.63;;;0.60;90.70;;;;;;6232398;28;20053;-78
2022/01/12 07:51:19;;;;;;;20.85;9.35;;;0.70;90.70;;;;;;6231963;28;20104;-79
2022/01/12 07:54:21;;;;;;;20.95;9.93;;;0.80;90.50;;;;;;6229441;28;20627;-78
2022/01/12 07:57:23;;;;;;;16.05;9.02;;;0.90;90.80;;;;;;6228734;28;20053;-78
2022/01/12 08:00:24;;;;;;;21.58;9.57;;;1.00;90.40;;;;;;6229568;28;20049;-78
2022/01/12 08:03:28;;;;;;;29.10;10.98;;;1.10;90.30;;;;;;6230389;28;20132;-79
2022/01/12 08:06:30;;;;;;;17.50;9.93;;;1.20;90.30;;;;;;6229385;28;20053;-79
2022/01/12 08:09:32;;;;;;;15.63;7.63;;;1.20;90.00;;;;;;6230701;28;20053;-79
2022/01/12 08:12:34;;;;;;;13.15;6.97;;;1.40;90.00;;;;;;6231830;28;20049;-78
2022/01/12 08:15:35;;;;;;;20.88;9.35;;;1.50;89.40;;;;;;6231427;28;20118;-78
2022/01/12 08:18:38;;;;;;;18.58;9.40;;;1.50;89.20;;;;;;6226087;28;20129;-78
2022/01/12 08:21:40;;;;;;;19.15;9.82;;;1.50;88.30;;;;;;6205080;28;20060;-79
2022/01/12 08:24:42;;;;;;;11.60;5.28;;;1.60;88.60;;;;;;6237106;28;20431;-80
2022/01/12 08:27:44;;;;;;;19.75;8.65;;;1.70;88.40;;;;;;6232182;28;20050;-80
2022/01/12 08:30:46;;;;;;;18.92;8.95;;;1.80;87.80;;;;;;6228830;28;20042;-80
2022/01/12 08:33:49;;;;;;;17.45;7.47;;;2.00;87.40;;;;;;6228733;28;20498;-80
2022/01/12 08:36:52;;;;;;;19.33;9.73;;;2.20;86.50;;;;;;6227801;28;20056;-80
2022/01/12 08:39:53;;;;;;;14.38;7.30;;;2.40;86.00;;;;;;6228105;28;20550;-81
2022/01/12 08:42:55;;;;;;;18.40;9.30;;;2.60;85.10;;;;;;6229263;28;20060;-81
2022/01/12 08:45:57;;;;;;;23.40;9.18;;;2.90;84.60;;;;;;6221137;28;20046;-81
2022/01/12 08:49:00;;;;;;;14.43;7.35;;;3.10;83.00;;;;;;6204624;28;20038;-81
2022/01/12 08:52:02;;;;;;;23.30;9.13;;;3.40;83.50;;;;;;6221400;28;20053;-80
2022/01/12 08:55:05;;;;;;;17.60;8.77;;;3.70;82.30;;;;;;6230319;28;20045;-81
2022/01/12 08:58:07;;;;;;;11.52;6.40;;;4.00;80.40;;;;;;6228464;28;20081;-81
2022/01/12 09:01:10;;;;;;;17.08;8.07;;;4.20;79.10;;;;;;6227123;28;20041;-80
2022/01/12 09:04:13;;;;;;;15.77;8.32;;;4.20;79.20;;;;;;6226875;28;20422;-80
2022/01/12 09:07:15;;;;;;;9.85;5.55;;;4.30;77.70;;;;;;6227651;28;20132;-80
2022/01/12 09:10:17;;;;;;;14.40;8.25;;;4.40;77.20;;;;;;6226422;28;20526;-80
2022/01/12 09:13:19;;;;;;;16.80;8.43;;;4.50;76.20;;;;;;6226769;28;20538;-80
2022/01/12 09:16:20;;;;;;;16.65;8.82;;;4.60;75.70;;;;;;6218918;28;20448;-80
2022/01/12 09:19:25;;;;;;;15.20;7.90;;;4.70;74.70;;;;;;6202417;28;20101;-79
2022/01/12 09:22:26;;;;;;;15.43;7.88;;;4.90;74.50;;;;;;6225289;28;20414;-81
2022/01/12 09:25:28;;;;;;;12.07;5.97;;;5.10;74.10;;;;;;6244583;28;20414;-78
2022/01/12 09:28:30;;;;;;;12.95;6.53;;;5.20;73.30;;;;;;6232666;28;20053;-79
2022/01/12 09:31:32;;;;;;;15.52;7.72;;;5.30;72.30;;;;;;6228844;28;20060;-79
2022/01/12 09:34:35;;;;;;;13.77;6.43;;;5.40;72.00;;;;;;6227968;28;20152;-80
2022/01/12 09:37:37;;;;;;;14.25;7.93;;;5.40;71.60;;;;;;6227706;28;20056;-79
2022/01/12 09:40:39;;;;;;;11.65;6.20;;;5.60;71.50;;;;;;6228348;28;20111;-79
2022/01/12 09:43:42;;;;;;;14.40;7.15;;;5.80;70.60;;;;;;6229239;28;20058;-79
2022/01/12 09:46:44;;;;;;;13.90;6.93;;;6.10;69.20;;;;;;6227836;28;20053;-80
2022/01/12 09:49:47;;;;;;;14.40;7.80;;;6.30;68.40;;;;;;6228416;28;20070;-79
2022/01/12 09:52:50;;;;;;;11.13;6.65;;;6.60;68.00;;;;;;6241809;28;20132;-79
2022/01/12 09:55:52;;;;;;;19.85;8.45;;;6.90;66.80;;;;;;6247172;28;20061;-79
2022/01/12 09:58:56;;;;;;;12.55;7.57;;;7.20;65.10;;;;;;6252155;28;20124;-80
2022/01/12 10:01:59;;;;;;;11.73;6.97;;;7.50;64.50;;;;;;6252153;28;20045;-79
2022/01/12 10:05:06;;;;;;;11.38;5.70;;;7.80;63.50;;;;;;6251727;28;20037;-79
2022/01/12 10:08:13;;;;;;;9.73;6.25;;;8.00;63.80;;;;;;6251317;28;20053;-80
2022/01/12 10:11:15;;;;;;;11.98;6.95;;;8.40;62.20;;;;;;6251444;28;20128;-80
2022/01/12 10:14:17;;;;;;;10.13;6.10;;;8.50;59.90;;;;;;6251630;28;20045;-79
2022/01/12 10:17:30;;;;;;;9.02;5.78;;;8.60;59.40;;;;;;6244252;28;20511;-80
2022/01/12 10:20:44;;;;;;;42.63;24.58;;;8.30;58.40;;;;;;6227078;28;20049;-80
2022/01/12 10:23:56;;;;;;;46.50;37.03;;;8.30;59.30;;;;;;6232403;28;20050;-80
2022/01/12 10:26:59;;;;;;;10.35;6.13;;;8.40;59.30;;;;;;6234973;28;20115;-80
2022/01/12 10:30:01;;;;;;;9.95;6.25;;;8.40;59.40;;;;;;6227538;28;20053;-80
2022/01/12 10:33:05;;;;;;;19.10;8.48;;;8.40;58.50;;;;;;6232371;28;20056;-80
2022/01/12 10:36:10;;;;;;;11.95;6.47;;;8.60;59.00;;;;;;6252072;28;20049;-80
2022/01/12 10:39:13;;;;;;;13.90;6.50;;;8.90;58.70;;;;;;6256712;28;20045;-80
2022/01/12 10:42:18;;;;;;;13.40;6.38;;;9.30;58.10;;;;;;6257158;28;20045;-79
2022/01/12 10:45:20;;;;;;;9.98;5.25;;;9.60;56.50;;;;;;6255311;28;20136;-80
2022/01/12 10:48:23;;;;;;;8.40;5.20;;;9.90;56.70;;;;;;6255591;28;20060;-80
2022/01/12 10:51:28;;;;;;;12.27;6.22;;;10.10;53.60;;;;;;6255215;28;20061;-81
2022/01/12 10:54:31;;;;;;;9.10;5.20;;;10.00;54.80;;;;;;6230575;28;20682;-79
2022/01/12 10:57:34;;;;;;;6.95;4.93;;;10.20;54.30;;;;;;6230875;28;20049;-80
2022/01/12 11:00:36;;;;;;;8.40;4.60;;;10.40;53.50;;;;;;6230404;28;20129;-80
2022/01/12 11:03:39;;;;;;;5.55;3.90;;;10.30;51.90;;;;;;6231311;28;20400;-80
2022/01/12 11:06:43;;;;;;;9.15;4.60;;;10.10;51.60;;;;;;6229921;28;20066;-79
2022/01/12 11:09:46;;;;;;;7.72;4.82;;;9.80;51.40;;;;;;6230378;28;20037;-80
2022/01/12 11:12:50;;;;;;;10.30;4.97;;;9.60;52.80;;;;;;6230125;28;20042;-80
2022/01/12 11:15:52;;;;;;;10.00;4.47;;;9.70;53.50;;;;;;6231172;28;20080;-81
2022/01/12 11:18:55;;;;;;;7.78;4.45;;;9.60;53.10;;;;;;6224443;28;20062;-80
2022/01/12 11:22:09;;;;;;;6.95;4.15;;;9.90;53.50;;;;;;6233673;28;20041;-80
2022/01/12 11:25:19;;;;;;;6.85;4.13;;;10.00;51.40;;;;;;6245657;28;20049;-79
2022/01/12 11:28:23;;;;;;;4.75;3.15;;;9.70;51.70;;;;;;6257749;28;20179;-80
2022/01/12 11:31:27;;;;;;;8.55;4.45;;;9.50;51.20;;;;;;6258795;28;20053;-80
2022/01/12 11:34:28;;;;;;;10.25;4.30;;;9.40;51.80;;;;;;6256935;28;20052;-78
2022/01/12 11:37:31;;;;;;;6.35;4.45;;;9.50;52.70;;;;;;6254200;28;20045;-80
2022/01/12 11:40:44;;;;;;;8.65;4.75;;;10.00;53.30;;;;;;6253140;28;20041;-78
2022/01/12 11:43:48;;;;;;;8.05;4.07;;;10.10;50.70;;;;;;6253794;28;20128;-81
2022/01/12 11:46:53;;;;;;;7.28;3.75;;;9.90;51.70;;;;;;6253500;28;20509;-80
2022/01/12 11:49:56;;;;;;;8.00;4.32;;;10.00;51.90;;;;;;6259101;28;20069;-81
2022/01/12 11:52:59;;;;;;;12.02;4.80;;;10.30;52.00;;;;;;6233081;28;20046;-80
2022/01/12 11:56:15;;;;;;;5.65;3.72;;;10.30;51.60;;;;;;6230267;28;20046;-81
2022/01/12 11:59:17;;;;;;;7.38;3.95;;;10.40;51.10;;;;;;6230297;28;20042;-80
2022/01/12 12:02:20;;;;;;;5.60;3.53;;;10.10;50.30;;;;;;6227519;28;20045;-79
2022/01/12 12:05:24;;;;;;;5.82;3.05;;;10.10;51.30;;;;;;6230168;28;20046;-82
2022/01/12 12:08:27;;;;;;;6.32;3.92;;;10.20;50.60;;;;;;6232070;28;20053;-82
2022/01/12 12:11:30;;;;;;;4.22;3.20;;;10.20;51.60;;;;;;6232286;28;20061;-81
2022/01/12 12:14:32;;;;;;;8.35;4.32;;;10.30;49.80;;;;;;6230232;28;20141;-81
2022/01/12 12:17:36;;;;;;;5.63;3.92;;;9.90;50.40;;;;;;6230807;28;20472;-83
2022/01/12 12:20:38;;;;;;;11.15;4.80;;;9.80;50.80;;;;;;6220639;28;20058;-84
2022/01/12 12:23:41;;;;;;;5.53;3.28;;;9.60;51.00;;;;;;6231130;28;20444;-81
2022/01/12 12:26:47;;;;;;;5.15;3.28;;;9.50;51.70;;;;;;6227697;28;20042;-82
2022/01/12 12:29:49;;;;;;;7.25;3.58;;;9.70;51.80;;;;;;6230082;28;20050;-81
2022/01/12 12:32:55;;;;;;;7.45;4.80;;;9.90;50.90;;;;;;6229584;28;20052;-82
2022/01/12 12:35:57;;;;;;;6.32;3.63;;;9.80;50.70;;;;;;6231403;28;20049;-83
2022/01/12 12:39:11;;;;;;;6.65;3.85;;;9.90;51.90;;;;;;6229329;28;20056;-82
2022/01/12 12:42:16;;;;;;;5.43;3.88;;;10.00;51.20;;;;;;6229640;28;20046;-82
2022/01/12 12:45:18;;;;;;;6.40;4.15;;;10.10;50.60;;;;;;6229964;28;20045;-84
2022/01/12 12:48:22;;;;;;;7.82;4.18;;;10.10;50.30;;;;;;6231259;28;20052;-83
2022/01/12 12:51:24;;;;;;;9.25;4.38;;;10.00;50.70;;;;;;6233594;28;20053;-83
2022/01/12 12:54:28;;;;;;;6.97;3.85;;;10.40;50.60;;;;;;6248528;28;20073;-80
2022/01/12 12:57:30;;;;;;;6.63;3.45;;;10.60;50.10;;;;;;6264894;28;20423;-83
2022/01/12 13:00:33;;;;;;;6.32;3.50;;;11.00;49.20;;;;;;6256292;28;20045;-84
2022/01/12 13:03:36;;;;;;;8.95;4.25;;;11.30;49.00;;;;;;6258023;28;20053;-83
2022/01/12 13:06:39;;;;;;;7.00;4.20;;;11.40;47.60;;;;;;6248750;28;20037;-83
2022/01/12 13:09:42;;;;;;;8.02;4.45;;;11.50;47.40;;;;;;6249085;28;20052;-83
2022/01/12 13:12:46;;;;;;;7.95;3.60;;;11.30;47.20;;;;;;6249032;28;20598;-84
2022/01/12 13:15:48;;;;;;;6.95;4.22;;;10.90;47.60;;;;;;6250462;28;20041;-82
2022/01/12 13:18:49;;;;;;;12.40;4.97;;;10.20;48.40;;;;;;6250879;28;20041;-82
2022/01/12 13:21:51;;;;;;;8.02;4.05;;;9.70;49.80;;;;;;6247433;28;20105;-83
2022/01/12 13:24:55;;;;;;;7.60;4.32;;;9.50;50.40;;;;;;6236969;28;20461;-83
2022/01/12 13:27:58;;;;;;;6.18;4.00;;;9.40;51.80;;;;;;6226096;28;20056;-82
2022/01/12 13:31:01;;;;;;;4.88;3.42;;;9.40;51.30;;;;;;6225794;28;20112;-81
2022/01/12 13:34:06;;;;;;;8.05;4.30;;;9.20;51.20;;;;;;6225627;28;20050;-82
2022/01/12 13:37:13;;;;;;;8.85;4.68;;;8.90;52.00;;;;;;6225622;28;20504;-82
2022/01/12 13:40:17;;;;;;;6.45;4.85;;;8.70;52.70;;;;;;6226233;28;20053;-83
2022/01/12 13:43:20;;;;;;;7.45;4.53;;;8.70;52.90;;;;;;6227003;28;20183;-82
2022/01/12 13:46:31;;;;;;;11.90;5.10;;;8.40;53.50;;;;;;6226634;28;20129;-84
2022/01/12 13:49:33;;;;;;;8.68;5.43;;;8.30;54.10;;;;;;6227681;28;20053;-81
2022/01/12 13:52:35;;;;;;;7.63;4.70;;;8.20;55.20;;;;;;6234670;28;20053;-82
2022/01/12 13:55:50;;;;;;;12.40;4.35;;;8.30;54.80;;;;;;6243803;28;20049;-83
2022/01/12 13:58:51;;;;;;;5.90;3.75;;;8.40;55.00;;;;;;6251524;28;20041;-80
2022/01/12 14:01:53;;;;;;;11.55;5.20;;;8.50;54.30;;;;;;6253102;28;20041;-82
2022/01/12 14:05:06;;;;;;;10.32;4.85;;;8.30;54.20;;;;;;6251434;28;20042;-82
2022/01/12 14:08:13;;;;;;;7.40;4.13;;;8.10;54.90;;;;;;6249664;28;20522;-83
2022/01/12 14:11:16;;;;;;;7.63;4.63;;;7.90;55.30;;;;;;6250419;28;20045;-82
2022/01/12 14:14:18;;;;;;;8.23;4.35;;;8.00;55.70;;;;;;6249272;28;20051;-83
2022/01/12 14:17:30;;;;;;;8.32;4.85;;;8.00;55.90;;;;;;6250469;28;20104;-83
2022/01/12 14:20:36;;;;;;;8.30;4.30;;;7.90;55.80;;;;;;6250330;28;20047;-83
2022/01/12 14:23:38;;;;;;;11.25;5.53;;;7.90;56.10;;;;;;6239706;28;20107;-80
2022/01/12 14:26:42;;;;;;;15.98;7.95;;;8.00;56.20;;;;;;6248960;28;20034;-83
2022/01/12 14:29:43;;;;;;;9.38;5.35;;;8.10;55.80;;;;;;6251799;28;20049;-82
2022/01/12 14:32:47;;;;;;;11.75;6.18;;;8.10;55.70;;;;;;6250076;28;20131;-82
2022/01/12 14:35:49;;;;;;;11.45;5.53;;;8.00;55.60;;;;;;6242778;28;20056;-85
2022/01/12 14:38:51;;;;;;;5.90;3.92;;;8.00;55.80;;;;;;6226797;28;20050;-82
2022/01/12 14:41:56;;;;;;;9.07;5.38;;;7.80;56.10;;;;;;6226086;28;20049;-82
2022/01/12 14:44:58;;;;;;;10.05;5.55;;;7.70;56.80;;;;;;6225752;28;20508;-84
2022/01/12 14:48:02;;;;;;;8.75;5.18;;;7.60;57.10;;;;;;6225852;28;20046;-82
2022/01/12 14:51:04;;;;;;;9.63;4.57;;;7.60;57.70;;;;;;6221486;28;20062;-81
2022/01/12 14:54:06;;;;;;;7.85;4.78;;;7.70;57.60;;;;;;6235156;28;20407;-80
2022/01/12 14:57:10;;;;;;;10.85;5.75;;;7.60;57.50;;;;;;6249569;28;20172;-82
2022/01/12 15:00:18;;;;;;;13.70;5.95;;;7.60;57.60;;;;;;6253832;28;20049;-83
2022/01/12 15:03:21;;;;;;;12.70;7.28;;;7.50;58.30;;;;;;6250848;28;20394;-80
2022/01/12 15:06:23;;;;;;;16.90;5.55;;;7.40;58.10;;;;;;6258213;28;20109;-82
2022/01/12 15:09:25;;;;;;;12.95;6.75;;;7.10;58.40;;;;;;6253728;28;20128;-81
2022/01/12 15:12:33;;;;;;;11.68;7.53;;;6.80;59.30;;;;;;6254561;28;20140;-81
2022/01/12 15:15:35;;;;;;;9.90;7.20;;;6.50;60.20;;;;;;6254326;28;20475;-83
2022/01/12 15:18:36;;;;;;;8.70;5.40;;;6.20;61.30;;;;;;6257852;28;20045;-83
2022/01/12 15:21:38;;;;;;;8.55;4.60;;;6.00;62.10;;;;;;6265447;28;20041;-80
2022/01/12 15:24:40;;;;;;;10.15;5.28;;;5.90;62.70;;;;;;6241446;28;20073;-79
2022/01/12 15:27:43;;;;;;;8.73;5.57;;;5.70;63.20;;;;;;6239231;28;20046;-81
2022/01/12 15:30:45;;;;;;;10.38;5.55;;;5.60;64.00;;;;;;6233571;28;20045;-84
2022/01/12 15:33:48;;;;;;;9.70;5.50;;;5.50;64.40;;;;;;6234878;28;20045;-83
2022/01/12 15:36:49;;;;;;;13.13;6.32;;;5.30;65.00;;;;;;6234027;28;20048;-83
2022/01/12 15:39:53;;;;;;;9.90;4.40;;;5.20;65.50;;;;;;6235037;28;20411;-84
2022/01/12 15:42:57;;;;;;;11.25;5.65;;;5.10;66.20;;;;;;6234846;28;20083;-83
2022/01/12 15:45:58;;;;;;;10.65;5.63;;;5.10;66.60;;;;;;6233354;28;20050;-84
2022/01/12 15:49:00;;;;;;;9.88;5.47;;;5.00;67.30;;;;;;6231394;28;20131;-83
2022/01/12 15:52:02;;;;;;;8.63;5.43;;;4.80;67.80;;;;;;6237912;28;20041;-83
2022/01/12 15:55:05;;;;;;;9.93;5.43;;;4.70;68.20;;;;;;6238830;28;20049;-84
2022/01/12 15:58:10;;;;;;;10.40;5.78;;;4.60;68.70;;;;;;6257936;28;20464;-83
2022/01/12 16:01:12;;;;;;;32.72;11.23;;;4.60;68.70;;;;;;6257854;28;20041;-83
2022/01/12 16:04:14;;;;;;;64.07;33.35;;;4.50;69.80;;;;;;6257556;28;20477;-83
2022/01/12 16:07:15;;;;;;;67.80;55.95;;;4.40;70.30;;;;;;6258043;28;20045;-83
2022/01/12 16:10:19;;;;;;;16.67;11.30;;;4.30;70.20;;;;;;6257672;28;20056;-82
2022/01/12 16:13:22;;;;;;;15.38;8.02;;;4.30;70.20;;;;;;6261665;28;20045;-82
2022/01/12 16:16:25;;;;;;;13.10;7.00;;;4.20;70.90;;;;;;6258613;28;20057;-84
2022/01/12 16:19:27;;;;;;;14.15;7.05;;;4.10;70.30;;;;;;6256191;28;20049;-83
2022/01/12 16:22:29;;;;;;;11.48;6.13;;;4.10;71.40;;;;;;6255885;28;20051;-83
2022/01/12 16:25:31;;;;;;;11.07;6.93;;;4.00;71.80;;;;;;6220914;28;20533;-83
2022/01/12 16:28:35;;;;;;;13.00;7.15;;;3.90;72.40;;;;;;6207731;28;20057;-83
2022/01/12 16:31:39;;;;;;;11.52;6.10;;;3.80;73.10;;;;;;6207516;28;20053;-83
2022/01/12 16:34:41;;;;;;;12.63;6.43;;;3.70;73.00;;;;;;6207003;28;20136;-84
2022/01/12 16:37:43;;;;;;;14.20;7.18;;;3.70;73.30;;;;;;6206240;28;20101;-82
2022/01/12 16:40:45;;;;;;;24.70;12.40;;;3.60;73.10;;;;;;6208448;28;20185;-83
2022/01/12 16:43:48;;;;;;;31.48;13.48;;;3.50;73.50;;;;;;6230168;28;20113;-81
2022/01/12 16:46:51;;;;;;;54.00;34.88;;;3.50;74.00;;;;;;6229495;28;20054;-82
2022/01/12 16:49:53;;;;;;;40.95;23.90;;;3.40;74.80;;;;;;6230320;28;20065;-83
2022/01/12 16:52:55;;;;;;;26.88;11.30;;;3.30;74.80;;;;;;6244782;28;20045;-82
2022/01/12 16:55:56;;;;;;;15.77;9.98;;;3.20;75.80;;;;;;6250233;28;20049;-84
2022/01/12 16:59:00;;;;;;;18.00;9.55;;;3.20;76.30;;;;;;6255255;28;20042;-83
2022/01/12 17:02:01;;;;;;;19.75;10.52;;;3.10;76.30;;;;;;6254624;28;20411;-83